sensor_id;sensor_type;location;lat;lon;timestamp;P1;durP1;ratioP1;P2;durP2;ratioP2
62724;SDS011;49026;52.600;4.694;2022-12-18T00:02:02;31.52;;;14.23;;
62724;SDS011;49026;52.600;4.694;2022-12-18T00:04:30;58.60;;;21.10;;
62724;SDS011;49026;52.600;4.694;2022-12-18T00:06:56;42.50;;;16.77;;
62724;SDS011;49026;52.600;4.694;2022-12-18T00:09:24;44.10;;;17.70;;
62724;SDS011;49026;52.600;4.694;2022-12-18T00:11:49;38.28;;;15.90;;
62724;SDS011;49026;52.600;4.694;2022-12-18T00:14:15;62.05;;;23.13;;
62724;SDS011;49026;52.600;4.694;2022-12-18T00:16:44;66.80;;;22.67;;
62724;SDS011;49026;52.600;4.694;2022-12-18T00:19:11;51.10;;;20.05;;
62724;SDS011;49026;52.600;4.694;2022-12-18T00:21:39;30.33;;;13.18;;
62724;SDS011;49026;52.600;4.694;2022-12-18T00:24:05;25.85;;;10.60;;
62724;SDS011;49026;52.600;4.694;2022-12-18T00:26:31;52.58;;;19.60;;
62724;SDS011;49026;52.600;4.694;2022-12-18T00:29:02;47.00;;;17.63;;
62724;SDS011;49026;52.600;4.694;2022-12-18T00:31:33;49.65;;;17.65;;
62724;SDS011;49026;52.600;4.694;2022-12-18T00:33:58;61.15;;;19.73;;
62724;SDS011;49026;52.600;4.694;2022-12-18T00:36:28;45.30;;;18.17;;
62724;SDS011;49026;52.600;4.694;2022-12-18T00:38:58;28.60;;;12.27;;
62724;SDS011;49026;52.600;4.694;2022-12-18T00:41:24;54.58;;;21.10;;
62724;SDS011;49026;52.600;4.694;2022-12-18T00:44:10;31.73;;;11.90;;
62724;SDS011;49026;52.600;4.694;2022-12-18T00:46:42;32.33;;;11.77;;
62724;SDS011;49026;52.600;4.694;2022-12-18T00:49:08;30.40;;;12.40;;
62724;SDS011;49026;52.600;4.694;2022-12-18T00:51:35;44.17;;;18.42;;
62724;SDS011;49026;52.600;4.694;2022-12-18T00:54:01;32.15;;;13.25;;
62724;SDS011;49026;52.600;4.694;2022-12-18T00:56:29;45.28;;;17.17;;
62724;SDS011;49026;52.600;4.694;2022-12-18T00:58:54;44.20;;;17.30;;
62724;SDS011;49026;52.600;4.694;2022-12-18T01:01:22;51.45;;;18.70;;
62724;SDS011;49026;52.600;4.694;2022-12-18T01:03:48;39.42;;;14.88;;
62724;SDS011;49026;52.600;4.694;2022-12-18T01:06:13;57.92;;;18.35;;
62724;SDS011;49026;52.600;4.694;2022-12-18T01:08:40;47.67;;;17.95;;
62724;SDS011;49026;52.600;4.694;2022-12-18T01:11:13;43.03;;;16.27;;
62724;SDS011;49026;52.600;4.694;2022-12-18T01:13:41;26.42;;;10.82;;
62724;SDS011;49026;52.600;4.694;2022-12-18T01:16:07;48.50;;;18.73;;
62724;SDS011;49026;52.600;4.694;2022-12-18T01:18:33;29.55;;;12.52;;
62724;SDS011;49026;52.600;4.694;2022-12-18T01:21:05;26.55;;;11.70;;
62724;SDS011;49026;52.600;4.694;2022-12-18T01:23:31;31.88;;;13.18;;
62724;SDS011;49026;52.600;4.694;2022-12-18T01:25:57;24.80;;;11.20;;
62724;SDS011;49026;52.600;4.694;2022-12-18T01:28:23;18.42;;;8.32;;
62724;SDS011;49026;52.600;4.694;2022-12-18T01:30:50;40.13;;;15.75;;
62724;SDS011;49026;52.600;4.694;2022-12-18T01:33:16;49.22;;;17.25;;
62724;SDS011;49026;52.600;4.694;2022-12-18T01:35:46;51.28;;;16.02;;
62724;SDS011;49026;52.600;4.694;2022-12-18T01:38:14;35.03;;;14.15;;
62724;SDS011;49026;52.600;4.694;2022-12-18T01:40:41;29.70;;;10.60;;
62724;SDS011;49026;52.600;4.694;2022-12-18T01:43:12;35.90;;;15.85;;
62724;SDS011;49026;52.600;4.694;2022-12-18T01:45:37;42.13;;;18.50;;
62724;SDS011;49026;52.600;4.694;2022-12-18T01:48:06;34.40;;;13.02;;
62724;SDS011;49026;52.600;4.694;2022-12-18T01:50:36;46.63;;;15.75;;
62724;SDS011;49026;52.600;4.694;2022-12-18T01:53:08;53.25;;;21.27;;
62724;SDS011;49026;52.600;4.694;2022-12-18T01:55:47;25.48;;;10.82;;
62724;SDS011;49026;52.600;4.694;2022-12-18T01:58:19;30.75;;;12.23;;
62724;SDS011;49026;52.600;4.694;2022-12-18T02:00:57;53.10;;;19.35;;
62724;SDS011;49026;52.600;4.694;2022-12-18T02:03:22;38.35;;;12.45;;
62724;SDS011;49026;52.600;4.694;2022-12-18T02:05:57;21.17;;;10.20;;
62724;SDS011;49026;52.600;4.694;2022-12-18T02:13:53;44.30;;;16.42;;
62724;SDS011;49026;52.600;4.694;2022-12-18T02:16:32;27.20;;;11.20;;
62724;SDS011;49026;52.600;4.694;2022-12-18T02:19:00;61.05;;;20.33;;
62724;SDS011;49026;52.600;4.694;2022-12-18T02:26:48;32.80;;;11.95;;
62724;SDS011;49026;52.600;4.694;2022-12-18T02:29:20;45.33;;;18.65;;
62724;SDS011;49026;52.600;4.694;2022-12-18T02:31:50;27.92;;;12.05;;
62724;SDS011;49026;52.600;4.694;2022-12-18T02:34:26;45.88;;;17.73;;
62724;SDS011;49026;52.600;4.694;2022-12-18T02:36:55;33.10;;;10.80;;
62724;SDS011;49026;52.600;4.694;2022-12-18T02:39:23;20.95;;;9.68;;
62724;SDS011;49026;52.600;4.694;2022-12-18T02:41:54;43.75;;;15.38;;
62724;SDS011;49026;52.600;4.694;2022-12-18T02:44:20;38.15;;;15.20;;
62724;SDS011;49026;52.600;4.694;2022-12-18T02:46:46;37.42;;;15.35;;
62724;SDS011;49026;52.600;4.694;2022-12-18T02:49:25;36.20;;;14.70;;
62724;SDS011;49026;52.600;4.694;2022-12-18T02:52:02;33.65;;;16.30;;
62724;SDS011;49026;52.600;4.694;2022-12-18T02:57:35;53.00;;;19.73;;
62724;SDS011;49026;52.600;4.694;2022-12-18T03:00:14;36.58;;;14.20;;
62724;SDS011;49026;52.600;4.694;2022-12-18T03:08:03;53.90;;;20.48;;
62724;SDS011;49026;52.600;4.694;2022-12-18T03:10:42;41.47;;;14.00;;
62724;SDS011;49026;52.600;4.694;2022-12-18T03:13:15;48.80;;;15.02;;
62724;SDS011;49026;52.600;4.694;2022-12-18T03:15:49;35.13;;;13.25;;
62724;SDS011;49026;52.600;4.694;2022-12-18T03:18:19;39.25;;;18.38;;
62724;SDS011;49026;52.600;4.694;2022-12-18T03:20:50;20.33;;;9.32;;
62724;SDS011;49026;52.600;4.694;2022-12-18T03:23:20;32.83;;;11.77;;
62724;SDS011;49026;52.600;4.694;2022-12-18T03:25:49;59.03;;;19.10;;
62724;SDS011;49026;52.600;4.694;2022-12-18T03:28:19;38.05;;;12.35;;
62724;SDS011;49026;52.600;4.694;2022-12-18T03:30:47;34.90;;;11.70;;
62724;SDS011;49026;52.600;4.694;2022-12-18T03:33:25;45.85;;;16.83;;
62724;SDS011;49026;52.600;4.694;2022-12-18T03:35:54;28.45;;;11.90;;
62724;SDS011;49026;52.600;4.694;2022-12-18T03:38:20;46.50;;;14.25;;
62724;SDS011;49026;52.600;4.694;2022-12-18T03:48:47;32.22;;;11.80;;
62724;SDS011;49026;52.600;4.694;2022-12-18T03:51:24;33.63;;;11.80;;
62724;SDS011;49026;52.600;4.694;2022-12-18T03:54:03;41.75;;;17.95;;
62724;SDS011;49026;52.600;4.694;2022-12-18T03:56:32;20.05;;;8.27;;
62724;SDS011;49026;52.600;4.694;2022-12-18T03:59:03;31.58;;;14.52;;
62724;SDS011;49026;52.600;4.694;2022-12-18T04:01:32;35.35;;;13.25;;
62724;SDS011;49026;52.600;4.694;2022-12-18T04:06:27;23.40;;;7.05;;
62724;SDS011;49026;52.600;4.694;2022-12-18T04:08:53;25.63;;;9.40;;
62724;SDS011;49026;52.600;4.694;2022-12-18T04:11:19;32.63;;;14.32;;
62724;SDS011;49026;52.600;4.694;2022-12-18T04:13:44;22.02;;;10.63;;
62724;SDS011;49026;52.600;4.694;2022-12-18T04:16:10;26.85;;;10.90;;
62724;SDS011;49026;52.600;4.694;2022-12-18T04:18:38;28.10;;;10.60;;
62724;SDS011;49026;52.600;4.694;2022-12-18T04:21:03;24.27;;;9.93;;
62724;SDS011;49026;52.600;4.694;2022-12-18T04:23:28;27.85;;;10.88;;
62724;SDS011;49026;52.600;4.694;2022-12-18T04:25:54;35.95;;;14.45;;
62724;SDS011;49026;52.600;4.694;2022-12-18T04:28:19;29.33;;;10.85;;
62724;SDS011;49026;52.600;4.694;2022-12-18T04:30:45;26.40;;;12.00;;
62724;SDS011;49026;52.600;4.694;2022-12-18T04:33:12;50.42;;;18.77;;
62724;SDS011;49026;52.600;4.694;2022-12-18T04:35:41;26.38;;;13.95;;
62724;SDS011;49026;52.600;4.694;2022-12-18T04:38:07;25.38;;;11.13;;
62724;SDS011;49026;52.600;4.694;2022-12-18T04:40:36;43.53;;;12.65;;
62724;SDS011;49026;52.600;4.694;2022-12-18T04:43:02;27.60;;;12.00;;
62724;SDS011;49026;52.600;4.694;2022-12-18T04:45:28;25.67;;;10.85;;
62724;SDS011;49026;52.600;4.694;2022-12-18T04:47:56;30.35;;;13.05;;
62724;SDS011;49026;52.600;4.694;2022-12-18T04:50:22;44.88;;;16.27;;
62724;SDS011;49026;52.600;4.694;2022-12-18T04:52:53;34.83;;;13.82;;
62724;SDS011;49026;52.600;4.694;2022-12-18T04:55:19;27.42;;;13.10;;
62724;SDS011;49026;52.600;4.694;2022-12-18T04:57:44;32.63;;;11.70;;
62724;SDS011;49026;52.600;4.694;2022-12-18T05:00:09;30.15;;;13.05;;
62724;SDS011;49026;52.600;4.694;2022-12-18T05:02:35;36.95;;;16.27;;
62724;SDS011;49026;52.600;4.694;2022-12-18T05:05:01;35.55;;;14.82;;
62724;SDS011;49026;52.600;4.694;2022-12-18T05:07:26;30.23;;;13.60;;
62724;SDS011;49026;52.600;4.694;2022-12-18T05:09:54;18.38;;;9.60;;
62724;SDS011;49026;52.600;4.694;2022-12-18T05:12:19;31.60;;;12.02;;
62724;SDS011;49026;52.600;4.694;2022-12-18T05:14:47;32.47;;;13.88;;
62724;SDS011;49026;52.600;4.694;2022-12-18T05:17:12;38.97;;;16.98;;
62724;SDS011;49026;52.600;4.694;2022-12-18T05:19:37;38.45;;;15.07;;
62724;SDS011;49026;52.600;4.694;2022-12-18T05:22:05;27.48;;;12.68;;
62724;SDS011;49026;52.600;4.694;2022-12-18T05:24:33;31.42;;;12.63;;
62724;SDS011;49026;52.600;4.694;2022-12-18T05:27:02;24.95;;;11.55;;
62724;SDS011;49026;52.600;4.694;2022-12-18T05:29:30;27.40;;;13.80;;
62724;SDS011;49026;52.600;4.694;2022-12-18T05:31:55;12.82;;;6.45;;
62724;SDS011;49026;52.600;4.694;2022-12-18T05:34:21;21.50;;;10.40;;
62724;SDS011;49026;52.600;4.694;2022-12-18T05:36:46;26.70;;;12.15;;
62724;SDS011;49026;52.600;4.694;2022-12-18T05:39:11;16.65;;;8.23;;
62724;SDS011;49026;52.600;4.694;2022-12-18T05:41:37;30.15;;;11.98;;
62724;SDS011;49026;52.600;4.694;2022-12-18T05:44:02;15.80;;;8.57;;
62724;SDS011;49026;52.600;4.694;2022-12-18T05:46:35;25.48;;;11.20;;
62724;SDS011;49026;52.600;4.694;2022-12-18T05:49:01;20.42;;;9.90;;
62724;SDS011;49026;52.600;4.694;2022-12-18T05:51:26;33.15;;;10.95;;
62724;SDS011;49026;52.600;4.694;2022-12-18T05:53:52;23.60;;;11.40;;
62724;SDS011;49026;52.600;4.694;2022-12-18T05:56:20;26.70;;;10.27;;
62724;SDS011;49026;52.600;4.694;2022-12-18T05:58:47;35.60;;;11.65;;
62724;SDS011;49026;52.600;4.694;2022-12-18T06:01:16;18.65;;;8.98;;
62724;SDS011;49026;52.600;4.694;2022-12-18T06:06:14;12.10;;;7.72;;
62724;SDS011;49026;52.600;4.694;2022-12-18T06:08:44;17.58;;;8.20;;
62724;SDS011;49026;52.600;4.694;2022-12-18T06:11:10;31.33;;;11.57;;
62724;SDS011;49026;52.600;4.694;2022-12-18T06:13:36;26.33;;;12.55;;
62724;SDS011;49026;52.600;4.694;2022-12-18T06:16:03;21.10;;;8.73;;
62724;SDS011;49026;52.600;4.694;2022-12-18T06:18:29;15.68;;;8.90;;
62724;SDS011;49026;52.600;4.694;2022-12-18T06:20:55;50.63;;;12.98;;
62724;SDS011;49026;52.600;4.694;2022-12-18T06:23:22;13.02;;;7.35;;
62724;SDS011;49026;52.600;4.694;2022-12-18T06:25:50;15.40;;;8.50;;
62724;SDS011;49026;52.600;4.694;2022-12-18T06:28:16;17.27;;;8.93;;
62724;SDS011;49026;52.600;4.694;2022-12-18T06:30:45;19.38;;;10.20;;
62724;SDS011;49026;52.600;4.694;2022-12-18T06:33:11;23.05;;;11.70;;
62724;SDS011;49026;52.600;4.694;2022-12-18T06:35:37;16.52;;;9.05;;
62724;SDS011;49026;52.600;4.694;2022-12-18T06:38:05;34.83;;;16.77;;
62724;SDS011;49026;52.600;4.694;2022-12-18T06:40:30;23.15;;;11.27;;
62724;SDS011;49026;52.600;4.694;2022-12-18T06:42:57;30.63;;;14.45;;
62724;SDS011;49026;52.600;4.694;2022-12-18T06:45:22;13.85;;;7.97;;
62724;SDS011;49026;52.600;4.694;2022-12-18T06:47:47;27.83;;;11.02;;
62724;SDS011;49026;52.600;4.694;2022-12-18T06:50:15;23.58;;;10.93;;
62724;SDS011;49026;52.600;4.694;2022-12-18T06:52:41;20.70;;;9.23;;
62724;SDS011;49026;52.600;4.694;2022-12-18T06:55:08;17.27;;;8.20;;
62724;SDS011;49026;52.600;4.694;2022-12-18T06:57:37;18.45;;;11.00;;
62724;SDS011;49026;52.600;4.694;2022-12-18T07:00:03;29.98;;;12.10;;
62724;SDS011;49026;52.600;4.694;2022-12-18T07:02:30;17.58;;;8.70;;
62724;SDS011;49026;52.600;4.694;2022-12-18T07:04:55;34.28;;;15.65;;
62724;SDS011;49026;52.600;4.694;2022-12-18T07:07:21;22.98;;;11.07;;
62724;SDS011;49026;52.600;4.694;2022-12-18T07:09:46;29.17;;;12.40;;
62724;SDS011;49026;52.600;4.694;2022-12-18T07:12:14;21.92;;;10.93;;
62724;SDS011;49026;52.600;4.694;2022-12-18T07:14:41;17.00;;;9.32;;
62724;SDS011;49026;52.600;4.694;2022-12-18T07:17:09;15.48;;;9.05;;
62724;SDS011;49026;52.600;4.694;2022-12-18T07:19:36;21.52;;;10.90;;
62724;SDS011;49026;52.600;4.694;2022-12-18T07:22:02;33.10;;;14.13;;
62724;SDS011;49026;52.600;4.694;2022-12-18T07:24:27;17.88;;;10.18;;
62724;SDS011;49026;52.600;4.694;2022-12-18T07:26:53;18.33;;;10.23;;
62724;SDS011;49026;52.600;4.694;2022-12-18T07:29:18;23.73;;;11.20;;
62724;SDS011;49026;52.600;4.694;2022-12-18T07:31:46;34.05;;;16.10;;
62724;SDS011;49026;52.600;4.694;2022-12-18T07:34:12;24.45;;;11.40;;
62724;SDS011;49026;52.600;4.694;2022-12-18T07:36:40;27.10;;;11.98;;
62724;SDS011;49026;52.600;4.694;2022-12-18T07:39:09;39.75;;;17.23;;
62724;SDS011;49026;52.600;4.694;2022-12-18T07:41:36;17.55;;;10.00;;
62724;SDS011;49026;52.600;4.694;2022-12-18T07:44:03;33.95;;;15.65;;
62724;SDS011;49026;52.600;4.694;2022-12-18T07:46:28;16.67;;;8.25;;
62724;SDS011;49026;52.600;4.694;2022-12-18T07:48:54;17.08;;;8.80;;
62724;SDS011;49026;52.600;4.694;2022-12-18T07:51:19;17.95;;;10.32;;
62724;SDS011;49026;52.600;4.694;2022-12-18T07:53:44;13.82;;;6.00;;
62724;SDS011;49026;52.600;4.694;2022-12-18T07:56:11;18.10;;;9.45;;
62724;SDS011;49026;52.600;4.694;2022-12-18T07:58:37;25.55;;;10.13;;
62724;SDS011;49026;52.600;4.694;2022-12-18T08:01:06;21.95;;;11.57;;
62724;SDS011;49026;52.600;4.694;2022-12-18T08:03:35;18.30;;;9.40;;
62724;SDS011;49026;52.600;4.694;2022-12-18T08:06:01;9.80;;;4.57;;
62724;SDS011;49026;52.600;4.694;2022-12-18T08:08:31;15.23;;;7.82;;
62724;SDS011;49026;52.600;4.694;2022-12-18T08:10:57;8.02;;;5.35;;
62724;SDS011;49026;52.600;4.694;2022-12-18T08:13:23;25.48;;;11.85;;
62724;SDS011;49026;52.600;4.694;2022-12-18T08:15:56;22.30;;;6.70;;
62724;SDS011;49026;52.600;4.694;2022-12-18T08:18:25;18.83;;;7.32;;
62724;SDS011;49026;52.600;4.694;2022-12-18T08:20:51;22.42;;;9.02;;
62724;SDS011;49026;52.600;4.694;2022-12-18T08:23:16;13.38;;;6.15;;
62724;SDS011;49026;52.600;4.694;2022-12-18T08:25:41;10.70;;;5.53;;
62724;SDS011;49026;52.600;4.694;2022-12-18T08:28:09;15.05;;;8.32;;
62724;SDS011;49026;52.600;4.694;2022-12-18T08:30:35;21.63;;;8.75;;
62724;SDS011;49026;52.600;4.694;2022-12-18T08:33:02;13.43;;;7.63;;
62724;SDS011;49026;52.600;4.694;2022-12-18T08:35:28;20.20;;;9.98;;
62724;SDS011;49026;52.600;4.694;2022-12-18T08:37:53;18.33;;;10.48;;
62724;SDS011;49026;52.600;4.694;2022-12-18T08:40:18;20.88;;;10.65;;
62724;SDS011;49026;52.600;4.694;2022-12-18T08:42:44;29.48;;;10.68;;
62724;SDS011;49026;52.600;4.694;2022-12-18T08:45:28;18.33;;;9.20;;
62724;SDS011;49026;52.600;4.694;2022-12-18T08:47:53;16.83;;;8.85;;
62724;SDS011;49026;52.600;4.694;2022-12-18T08:50:19;19.33;;;6.43;;
62724;SDS011;49026;52.600;4.694;2022-12-18T08:52:45;15.98;;;8.68;;
62724;SDS011;49026;52.600;4.694;2022-12-18T08:55:12;10.90;;;6.00;;
62724;SDS011;49026;52.600;4.694;2022-12-18T08:57:38;27.98;;;8.88;;
62724;SDS011;49026;52.600;4.694;2022-12-18T09:00:03;12.20;;;6.65;;
62724;SDS011;49026;52.600;4.694;2022-12-18T09:02:32;15.07;;;8.43;;
62724;SDS011;49026;52.600;4.694;2022-12-18T09:04:57;19.92;;;11.50;;
62724;SDS011;49026;52.600;4.694;2022-12-18T09:07:23;15.63;;;6.90;;
62724;SDS011;49026;52.600;4.694;2022-12-18T09:09:48;18.35;;;9.63;;
62724;SDS011;49026;52.600;4.694;2022-12-18T09:12:13;11.75;;;7.05;;
62724;SDS011;49026;52.600;4.694;2022-12-18T09:14:41;16.02;;;7.88;;
62724;SDS011;49026;52.600;4.694;2022-12-18T09:17:06;20.08;;;9.90;;
62724;SDS011;49026;52.600;4.694;2022-12-18T09:19:32;15.57;;;8.18;;
62724;SDS011;49026;52.600;4.694;2022-12-18T09:21:57;16.75;;;8.40;;
62724;SDS011;49026;52.600;4.694;2022-12-18T09:24:22;12.48;;;7.32;;
62724;SDS011;49026;52.600;4.694;2022-12-18T09:26:48;14.02;;;8.40;;
62724;SDS011;49026;52.600;4.694;2022-12-18T09:29:14;11.68;;;6.20;;
62724;SDS011;49026;52.600;4.694;2022-12-18T09:31:40;18.85;;;8.05;;
62724;SDS011;49026;52.600;4.694;2022-12-18T09:34:06;12.63;;;7.57;;
62724;SDS011;49026;52.600;4.694;2022-12-18T09:36:32;19.50;;;11.23;;
62724;SDS011;49026;52.600;4.694;2022-12-18T09:38:57;13.65;;;6.55;;
62724;SDS011;49026;52.600;4.694;2022-12-18T09:44:18;10.50;;;5.32;;
62724;SDS011;49026;52.600;4.694;2022-12-18T09:46:49;16.42;;;8.90;;
62724;SDS011;49026;52.600;4.694;2022-12-18T09:49:19;16.15;;;7.20;;
62724;SDS011;49026;52.600;4.694;2022-12-18T09:54:41;16.15;;;8.80;;
62724;SDS011;49026;52.600;4.694;2022-12-18T09:57:12;20.42;;;10.50;;
62724;SDS011;49026;52.600;4.694;2022-12-18T09:59:42;12.55;;;7.20;;
62724;SDS011;49026;52.600;4.694;2022-12-18T10:02:15;15.93;;;8.20;;
62724;SDS011;49026;52.600;4.694;2022-12-18T10:04:48;17.67;;;8.70;;
62724;SDS011;49026;52.600;4.694;2022-12-18T10:07:29;15.50;;;8.88;;
62724;SDS011;49026;52.600;4.694;2022-12-18T10:10:10;11.75;;;6.50;;
62724;SDS011;49026;52.600;4.694;2022-12-18T10:12:43;18.02;;;9.90;;
62724;SDS011;49026;52.600;4.694;2022-12-18T10:18:15;8.18;;;5.35;;
62724;SDS011;49026;52.600;4.694;2022-12-18T10:20:54;14.52;;;7.18;;
62724;SDS011;49026;52.600;4.694;2022-12-18T10:23:26;9.65;;;5.53;;
62724;SDS011;49026;52.600;4.694;2022-12-18T10:26:05;13.85;;;7.22;;
62724;SDS011;49026;52.600;4.694;2022-12-18T10:28:33;13.45;;;6.18;;
62724;SDS011;49026;52.600;4.694;2022-12-18T10:31:07;11.27;;;6.72;;
62724;SDS011;49026;52.600;4.694;2022-12-18T10:33:41;19.27;;;8.88;;
62724;SDS011;49026;52.600;4.694;2022-12-18T10:36:09;11.70;;;7.00;;
62724;SDS011;49026;52.600;4.694;2022-12-18T10:38:35;15.35;;;7.75;;
62724;SDS011;49026;52.600;4.694;2022-12-18T10:41:22;11.45;;;6.60;;
62724;SDS011;49026;52.600;4.694;2022-12-18T10:44:10;17.38;;;7.80;;
62724;SDS011;49026;52.600;4.694;2022-12-18T10:46:39;15.05;;;7.65;;
62724;SDS011;49026;52.600;4.694;2022-12-18T10:49:07;13.38;;;6.97;;
62724;SDS011;49026;52.600;4.694;2022-12-18T10:51:47;10.23;;;5.97;;
62724;SDS011;49026;52.600;4.694;2022-12-18T10:54:18;11.98;;;7.07;;
62724;SDS011;49026;52.600;4.694;2022-12-18T10:56:46;13.38;;;6.50;;
62724;SDS011;49026;52.600;4.694;2022-12-18T10:59:15;14.38;;;8.93;;
62724;SDS011;49026;52.600;4.694;2022-12-18T11:01:59;9.23;;;5.50;;
62724;SDS011;49026;52.600;4.694;2022-12-18T11:04:26;12.77;;;6.63;;
62724;SDS011;49026;52.600;4.694;2022-12-18T11:06:57;9.60;;;6.38;;
62724;SDS011;49026;52.600;4.694;2022-12-18T11:09:31;18.25;;;8.63;;
62724;SDS011;49026;52.600;4.694;2022-12-18T11:11:59;8.73;;;5.35;;
62724;SDS011;49026;52.600;4.694;2022-12-18T11:14:28;15.50;;;6.40;;
62724;SDS011;49026;52.600;4.694;2022-12-18T11:16:56;17.02;;;8.25;;
62724;SDS011;49026;52.600;4.694;2022-12-18T11:25:17;17.40;;;7.95;;
62724;SDS011;49026;52.600;4.694;2022-12-18T11:31:37;19.38;;;7.47;;
62724;SDS011;49026;52.600;4.694;2022-12-18T11:33:51;12.25;;;8.00;;
62724;SDS011;49026;52.600;4.694;2022-12-18T11:36:22;15.82;;;9.20;;
62724;SDS011;49026;52.600;4.694;2022-12-18T11:38:49;11.60;;;6.55;;
62724;SDS011;49026;52.600;4.694;2022-12-18T11:41:26;20.92;;;11.57;;
62724;SDS011;49026;52.600;4.694;2022-12-18T11:44:16;13.38;;;7.03;;
62724;SDS011;49026;52.600;4.694;2022-12-18T11:46:51;15.73;;;9.15;;
62724;SDS011;49026;52.600;4.694;2022-12-18T11:49:25;13.20;;;7.30;;
62724;SDS011;49026;52.600;4.694;2022-12-18T11:52:39;11.00;;;6.55;;
62724;SDS011;49026;52.600;4.694;2022-12-18T11:54:51;13.55;;;7.47;;
62724;SDS011;49026;52.600;4.694;2022-12-18T12:00:11;17.35;;;8.15;;
62724;SDS011;49026;52.600;4.694;2022-12-18T12:16:41;8.07;;;5.15;;
62724;SDS011;49026;52.600;4.694;2022-12-18T12:19:26;18.02;;;10.18;;
62724;SDS011;49026;52.600;4.694;2022-12-18T12:24:45;9.90;;;5.82;;
62724;SDS011;49026;52.600;4.694;2022-12-18T12:27:25;18.13;;;9.45;;
62724;SDS011;49026;52.600;4.694;2022-12-18T12:30:30;15.07;;;8.40;;
62724;SDS011;49026;52.600;4.694;2022-12-18T12:39:23;14.57;;;8.27;;
62724;SDS011;49026;52.600;4.694;2022-12-18T12:42:00;17.02;;;7.13;;
62724;SDS011;49026;52.600;4.694;2022-12-18T12:44:47;15.88;;;8.88;;
62724;SDS011;49026;52.600;4.694;2022-12-18T12:47:19;12.98;;;8.35;;
62724;SDS011;49026;52.600;4.694;2022-12-18T12:49:48;12.18;;;6.95;;
62724;SDS011;49026;52.600;4.694;2022-12-18T12:52:20;15.45;;;7.57;;
62724;SDS011;49026;52.600;4.694;2022-12-18T12:54:56;19.02;;;11.30;;
62724;SDS011;49026;52.600;4.694;2022-12-18T12:57:24;12.18;;;8.13;;
62724;SDS011;49026;52.600;4.694;2022-12-18T13:00:01;14.63;;;8.93;;
62724;SDS011;49026;52.600;4.694;2022-12-18T13:02:39;18.38;;;9.57;;
62724;SDS011;49026;52.600;4.694;2022-12-18T13:07:54;18.85;;;8.52;;
62724;SDS011;49026;52.600;4.694;2022-12-18T13:10:31;13.48;;;6.32;;
62724;SDS011;49026;52.600;4.694;2022-12-18T13:18:27;21.65;;;8.77;;
62724;SDS011;49026;52.600;4.694;2022-12-18T13:25:52;15.20;;;7.93;;
62724;SDS011;49026;52.600;4.694;2022-12-18T13:43:46;13.13;;;7.65;;
62724;SDS011;49026;52.600;4.694;2022-12-18T13:51:39;16.83;;;8.65;;
62724;SDS011;49026;52.600;4.694;2022-12-18T13:57:02;12.18;;;7.97;;
62724;SDS011;49026;52.600;4.694;2022-12-18T13:59:36;9.10;;;6.25;;
62724;SDS011;49026;52.600;4.694;2022-12-18T14:02:07;15.65;;;8.15;;
62724;SDS011;49026;52.600;4.694;2022-12-18T14:04:38;11.02;;;7.15;;
62724;SDS011;49026;52.600;4.694;2022-12-18T14:07:07;13.73;;;7.50;;
62724;SDS011;49026;52.600;4.694;2022-12-18T14:09:40;14.88;;;7.50;;
62724;SDS011;49026;52.600;4.694;2022-12-18T14:12:15;12.75;;;7.65;;
62724;SDS011;49026;52.600;4.694;2022-12-18T14:15:05;13.98;;;7.10;;
62724;SDS011;49026;52.600;4.694;2022-12-18T14:17:41;17.27;;;8.93;;
62724;SDS011;49026;52.600;4.694;2022-12-18T14:20:12;15.57;;;7.35;;
62724;SDS011;49026;52.600;4.694;2022-12-18T14:22:45;11.48;;;6.65;;
62724;SDS011;49026;52.600;4.694;2022-12-18T14:30:24;14.77;;;8.00;;
62724;SDS011;49026;52.600;4.694;2022-12-18T14:33:19;12.57;;;7.15;;
62724;SDS011;49026;52.600;4.694;2022-12-18T14:41:05;16.88;;;7.40;;
62724;SDS011;49026;52.600;4.694;2022-12-18T14:43:35;19.13;;;9.25;;
62724;SDS011;49026;52.600;4.694;2022-12-18T14:46:03;8.48;;;5.55;;
62724;SDS011;49026;52.600;4.694;2022-12-18T14:48:33;14.85;;;8.00;;
62724;SDS011;49026;52.600;4.694;2022-12-18T14:56:26;12.35;;;6.55;;
62724;SDS011;49026;52.600;4.694;2022-12-18T14:59:01;14.05;;;6.20;;
62724;SDS011;49026;52.600;4.694;2022-12-18T15:01:33;15.40;;;8.20;;
62724;SDS011;49026;52.600;4.694;2022-12-18T15:04:04;11.50;;;6.25;;
62724;SDS011;49026;52.600;4.694;2022-12-18T15:06:50;12.25;;;7.22;;
62724;SDS011;49026;52.600;4.694;2022-12-18T15:09:29;12.25;;;7.78;;
62724;SDS011;49026;52.600;4.694;2022-12-18T15:11:56;12.50;;;7.07;;
62724;SDS011;49026;52.600;4.694;2022-12-18T15:17:14;11.98;;;6.15;;
62724;SDS011;49026;52.600;4.694;2022-12-18T15:19:44;13.77;;;8.75;;
62724;SDS011;49026;52.600;4.694;2022-12-18T15:22:17;14.90;;;7.15;;
62724;SDS011;49026;52.600;4.694;2022-12-18T15:24:45;12.32;;;7.75;;
62724;SDS011;49026;52.600;4.694;2022-12-18T15:27:24;12.25;;;6.72;;
62724;SDS011;49026;52.600;4.694;2022-12-18T15:30:11;11.90;;;6.60;;
62724;SDS011;49026;52.600;4.694;2022-12-18T15:32:43;19.30;;;8.68;;
62724;SDS011;49026;52.600;4.694;2022-12-18T15:37:45;13.35;;;8.52;;
62724;SDS011;49026;52.600;4.694;2022-12-18T15:40:12;19.60;;;10.65;;
62724;SDS011;49026;52.600;4.694;2022-12-18T15:42:45;14.80;;;7.55;;
62724;SDS011;49026;52.600;4.694;2022-12-18T15:45:30;13.57;;;6.53;;
62724;SDS011;49026;52.600;4.694;2022-12-18T15:47:56;14.95;;;6.82;;
62724;SDS011;49026;52.600;4.694;2022-12-18T15:50:21;11.82;;;6.82;;
62724;SDS011;49026;52.600;4.694;2022-12-18T15:52:48;18.23;;;8.13;;
62724;SDS011;49026;52.600;4.694;2022-12-18T15:55:22;14.38;;;8.30;;
62724;SDS011;49026;52.600;4.694;2022-12-18T15:58:08;14.68;;;9.10;;
62724;SDS011;49026;52.600;4.694;2022-12-18T16:00:35;15.23;;;8.32;;
62724;SDS011;49026;52.600;4.694;2022-12-18T16:03:03;14.90;;;6.90;;
62724;SDS011;49026;52.600;4.694;2022-12-18T16:05:29;18.30;;;10.80;;
62724;SDS011;49026;52.600;4.694;2022-12-18T16:07:55;15.73;;;9.40;;
62724;SDS011;49026;52.600;4.694;2022-12-18T16:10:21;13.05;;;7.90;;
62724;SDS011;49026;52.600;4.694;2022-12-18T16:12:46;15.88;;;7.35;;
62724;SDS011;49026;52.600;4.694;2022-12-18T16:15:13;10.73;;;6.85;;
62724;SDS011;49026;52.600;4.694;2022-12-18T16:17:40;17.40;;;9.18;;
62724;SDS011;49026;52.600;4.694;2022-12-18T16:20:08;14.88;;;7.65;;
62724;SDS011;49026;52.600;4.694;2022-12-18T16:22:39;17.35;;;9.57;;
62724;SDS011;49026;52.600;4.694;2022-12-18T16:25:05;17.55;;;8.63;;
62724;SDS011;49026;52.600;4.694;2022-12-18T16:27:30;17.30;;;9.32;;
62724;SDS011;49026;52.600;4.694;2022-12-18T16:29:55;12.82;;;6.18;;
62724;SDS011;49026;52.600;4.694;2022-12-18T16:32:21;11.23;;;6.53;;
62724;SDS011;49026;52.600;4.694;2022-12-18T16:34:47;10.25;;;6.75;;
62724;SDS011;49026;52.600;4.694;2022-12-18T16:37:13;26.35;;;11.55;;
62724;SDS011;49026;52.600;4.694;2022-12-18T16:39:40;21.08;;;9.70;;
62724;SDS011;49026;52.600;4.694;2022-12-18T16:42:16;15.68;;;8.00;;
62724;SDS011;49026;52.600;4.694;2022-12-18T16:44:44;19.10;;;9.73;;
62724;SDS011;49026;52.600;4.694;2022-12-18T16:47:10;15.98;;;9.20;;
62724;SDS011;49026;52.600;4.694;2022-12-18T16:49:36;18.65;;;8.27;;
62724;SDS011;49026;52.600;4.694;2022-12-18T16:52:02;19.83;;;9.95;;
62724;SDS011;49026;52.600;4.694;2022-12-18T16:54:28;22.45;;;10.80;;
62724;SDS011;49026;52.600;4.694;2022-12-18T16:56:59;14.52;;;8.32;;